createdAt,value
2019-05-09T00:01:03.893Z,98613.54
2019-05-09T00:03:33.522Z,98622.95
2019-05-09T00:06:04.451Z,98614.58
2019-05-09T00:08:33.473Z,98621.73
2019-05-09T00:11:03.702Z,98623.58
2019-05-09T00:13:34.103Z,98620.70
2019-05-09T00:16:03.683Z,98624.69
2019-05-09T00:18:33.642Z,98630.91
2019-05-09T00:21:06.615Z,98623.58
2019-05-09T00:23:35.052Z,98631.45
2019-05-09T00:26:04.189Z,98634.39
2019-05-09T00:28:36.099Z,98632.25
2019-05-09T00:31:10.424Z,98632.16
2019-05-09T00:33:39.428Z,98632.05
2019-05-09T00:36:07.822Z,98633.45
2019-05-09T00:38:40.844Z,98634.38
2019-05-09T00:41:09.546Z,98629.27
2019-05-09T00:43:38.642Z,98638.55
2019-05-09T00:46:08.854Z,98637.76
2019-05-09T00:48:43.845Z,98645.41
2019-05-09T00:51:16.484Z,98641.80
2019-05-09T00:53:46.559Z,98642.03
2019-05-09T00:56:14.972Z,98642.03
2019-05-09T00:58:44.079Z,98645.60
2019-05-09T01:01:14.077Z,98645.80
2019-05-09T01:03:43.267Z,98646.83
2019-05-09T01:06:13.451Z,98651.23
2019-05-09T01:08:44.065Z,98650.19
2019-05-09T01:11:15.333Z,98642.03
2019-05-09T01:13:43.441Z,98650.19
2019-05-09T01:16:13.341Z,98642.22
2019-05-09T01:18:43.751Z,98641.52
2019-05-09T01:21:13.360Z,98637.53
2019-05-09T01:23:43.637Z,98634.88
2019-05-09T01:26:13.209Z,98638.95
2019-05-09T01:28:44.045Z,98643.36
2019-05-09T01:31:13.292Z,98642.31
2019-05-09T01:33:49.445Z,98642.03
2019-05-09T01:36:19.420Z,98643.91
2019-05-09T01:38:47.856Z,98650.05
2019-05-09T01:41:27.969Z,98649.36
2019-05-09T01:43:48.408Z,98651.51
2019-05-09T01:46:16.888Z,98648.62
2019-05-09T01:48:45.309Z,98655.31
2019-05-09T01:51:14.039Z,98655.17
2019-05-09T01:53:44.183Z,98649.77
2019-05-09T01:56:13.981Z,98643.95
2019-05-09T01:58:43.184Z,98650.69
2019-05-09T02:01:13.436Z,98650.47
2019-05-09T02:03:43.727Z,98646.52
2019-05-09T02:06:13.619Z,98649.36
2019-05-09T02:08:43.775Z,98652.02
2019-05-09T02:11:13.391Z,98646.39
2019-05-09T02:13:44.077Z,98653.89
2019-05-09T02:16:14.237Z,98643.07
2019-05-09T02:18:46.966Z,98648.86
2019-05-09T02:21:15.373Z,98648.55
2019-05-09T02:23:43.812Z,98649.69
2019-05-09T02:26:13.582Z,98650.50
2019-05-09T02:28:43.281Z,98660.49
2019-05-09T02:31:15.784Z,98652.80
2019-05-09T02:33:45.450Z,98655.88
2019-05-09T02:36:12.320Z,98653.63
2019-05-09T02:38:40.778Z,98648.53
2019-05-09T02:41:09.177Z,98642.72
2019-05-09T02:43:38.947Z,98641.17
2019-05-09T02:46:19.054Z,98641.98
2019-05-09T02:48:49.513Z,98647.08
2019-05-09T02:51:18.678Z,98651.66
2019-05-09T02:53:48.586Z,98650.73
2019-05-09T02:56:18.927Z,98655.63
2019-05-09T02:58:48.914Z,98658.70
2019-05-09T03:01:29.546Z,98655.82
2019-05-09T03:03:58.911Z,98655.72
2019-05-09T03:06:28.495Z,98662.45
2019-05-09T03:08:59.350Z,98660.91
2019-05-09T03:11:28.925Z,98666.44
2019-05-09T03:13:58.608Z,98659.16
2019-05-09T03:16:31.175Z,98666.44
2019-05-09T03:19:00.054Z,98671.38
2019-05-09T03:21:32.902Z,98670.14
2019-05-09T03:24:01.458Z,98669.13
2019-05-09T03:26:31.591Z,98673.53
2019-05-09T03:29:09.584Z,98673.45
2019-05-09T03:31:40.776Z,98666.47
2019-05-09T03:34:09.826Z,98672.88
2019-05-09T03:36:39.597Z,98678.91
2019-05-09T03:39:10.326Z,98681.75
2019-05-09T03:41:39.488Z,98680.23
2019-05-09T03:44:12.525Z,98678.99
2019-05-09T03:46:47.726Z,98682.15
2019-05-09T03:49:18.182Z,98682.47
2019-05-09T03:51:48.237Z,98682.97
2019-05-09T03:54:18.914Z,98681.43
2019-05-09T03:57:04.100Z,98683.66
2019-05-09T03:59:34.174Z,98680.69
2019-05-09T04:02:02.758Z,98687.04
2019-05-09T04:04:38.394Z,98679.50
2019-05-09T04:07:14.484Z,98685.58
2019-05-09T04:09:47.867Z,98689.69
2019-05-09T04:12:18.161Z,98698.85
2019-05-09T04:14:47.986Z,98693.91
2019-05-09T04:17:18.162Z,98701.64
2019-05-09T04:19:47.854Z,98695.42
2019-05-09T04:22:18.340Z,98695.93
2019-05-09T04:24:50.923Z,98696.44
2019-05-09T04:27:21.144Z,98699.59
2019-05-09T04:29:49.621Z,98700.42
2019-05-09T04:32:23.058Z,98699.99
2019-05-09T04:34:54.018Z,98703.58
2019-05-09T04:37:24.066Z,98712.87
2019-05-09T04:39:59.558Z,98702.97
2019-05-09T04:42:28.351Z,98707.23
2019-05-09T04:45:03.560Z,98709.29
2019-05-09T04:47:33.745Z,98708.97
2019-05-09T04:50:01.633Z,98711.44
2019-05-09T04:52:32.846Z,98708.06
2019-05-09T04:55:03.196Z,98713.83
2019-05-09T04:57:31.883Z,98718.10
2019-05-09T05:00:00.514Z,98715.77
2019-05-09T05:02:30.734Z,98716.48
2019-05-09T05:07:48.325Z,98720.76
2019-05-09T05:10:22.993Z,98711.44
2019-05-09T05:12:51.586Z,98724.58
2019-05-09T05:15:21.828Z,98721.05
2019-05-09T05:17:50.376Z,98729.30
2019-05-09T05:20:22.824Z,98733.11
2019-05-09T05:22:58.241Z,98731.78
2019-05-09T05:25:29.799Z,98729.13
2019-05-09T05:27:58.118Z,98736.40
2019-05-09T05:30:29.934Z,98731.75
2019-05-09T05:33:00.077Z,98729.70
2019-05-09T05:35:30.327Z,98730.85
2019-05-09T05:37:58.843Z,98727.55
2019-05-09T05:40:32.731Z,98735.87
2019-05-09T05:43:02.490Z,98735.14
2019-05-09T05:45:34.231Z,98735.91
2019-05-09T05:48:04.423Z,98734.59
2019-05-09T05:50:32.959Z,98732.54
2019-05-09T05:53:03.213Z,98734.59
2019-05-09T05:55:31.689Z,98734.69
2019-05-09T05:58:00.271Z,98733.17
2019-05-09T06:00:30.311Z,98738.69
2019-05-09T06:02:58.957Z,98742.08
2019-05-09T06:05:27.857Z,98739.64
2019-05-09T06:07:57.631Z,98740.25
2019-05-09T06:10:28.797Z,98738.22
2019-05-09T06:12:57.530Z,98739.08
2019-05-09T06:15:28.659Z,98742.81
2019-05-09T06:17:57.883Z,98742.91
2019-05-09T06:20:28.166Z,98744.40
2019-05-09T06:22:58.202Z,98740.38
2019-05-09T06:25:30.429Z,98741.70
2019-05-09T06:27:58.480Z,98749.59
2019-05-09T06:30:29.337Z,98749.81
2019-05-09T06:32:59.920Z,98745.98
2019-05-09T06:35:29.129Z,98743.33
2019-05-09T06:37:58.828Z,98748.98
2019-05-09T06:40:28.765Z,98749.93
2019-05-09T06:43:00.110Z,98747.79
2019-05-09T06:45:48.610Z,98753.73
2019-05-09T06:48:18.099Z,98746.56
2019-05-09T06:50:48.384Z,98748.30
2019-05-09T06:53:18.132Z,98753.31
2019-05-09T06:55:47.642Z,98762.53
2019-05-09T06:58:33.456Z,98755.77
2019-05-09T07:01:04.352Z,98759.03
2019-05-09T07:03:34.480Z,98750.54
2019-05-09T07:06:08.318Z,98750.34
2019-05-09T07:08:38.118Z,98748.92
2019-05-09T07:11:08.077Z,98750.04
2019-05-09T07:13:39.508Z,98745.02
2019-05-09T07:16:08.933Z,98743.77
2019-05-09T07:18:38.299Z,98750.83
2019-05-09T07:21:08.276Z,98756.08
2019-05-09T07:23:37.437Z,98754.02
2019-05-09T07:26:09.918Z,98755.20
2019-05-09T07:28:38.602Z,98765.33
2019-05-09T07:31:11.876Z,98763.80
2019-05-09T07:33:48.253Z,98765.33
2019-05-09T07:36:18.924Z,98765.33
2019-05-09T07:38:47.815Z,98771.13
2019-05-09T07:41:17.800Z,98759.44
2019-05-09T07:43:47.874Z,98756.65
2019-05-09T07:46:18.237Z,98758.30
2019-05-09T07:48:48.479Z,98763.39
2019-05-09T07:51:18.106Z,98760.47
2019-05-09T07:53:48.194Z,98766.83
2019-05-09T07:56:18.706Z,98761.30
2019-05-09T07:58:47.814Z,98766.55
2019-05-09T08:01:18.817Z,98764.14
2019-05-09T08:03:48.840Z,98763.89
2019-05-09T08:06:18.380Z,98771.26
2019-05-09T08:08:47.651Z,98761.37
2019-05-09T08:11:18.041Z,98769.00
2019-05-09T08:13:49.518Z,98764.73
2019-05-09T08:16:18.711Z,98761.59
2019-05-09T08:18:48.286Z,98769.17
2019-05-09T08:21:18.036Z,98764.27
2019-05-09T08:23:48.561Z,98764.97
2019-05-09T08:26:18.835Z,98763.48
2019-05-09T08:28:48.109Z,98761.19
2019-05-09T08:31:17.857Z,98759.34
2019-05-09T08:33:48.455Z,98760.83
2019-05-09T08:36:19.819Z,98762.09
2019-05-09T08:38:47.891Z,98759.38
2019-05-09T08:41:18.680Z,98760.70
2019-05-09T08:43:48.379Z,98759.33
2019-05-09T08:46:18.228Z,98768.06
2019-05-09T08:48:49.931Z,98759.75
2019-05-09T08:51:22.694Z,98762.43
2019-05-09T08:53:51.216Z,98760.87
2019-05-09T08:56:21.674Z,98755.59
2019-05-09T08:58:51.247Z,98759.73
2019-05-09T09:01:34.912Z,98755.59
2019-05-09T09:04:08.132Z,98754.72
2019-05-09T09:06:41.854Z,98756.31
2019-05-09T09:09:10.342Z,98762.38
2019-05-09T09:11:38.910Z,98753.47
2019-05-09T09:14:09.456Z,98751.48
2019-05-09T09:16:41.999Z,98748.78
2019-05-09T09:19:09.546Z,98747.15
2019-05-09T09:21:38.829Z,98749.75
2019-05-09T09:24:12.457Z,98748.54
2019-05-09T09:26:41.157Z,98747.95
2019-05-09T09:29:11.275Z,98743.31
2019-05-09T09:31:43.454Z,98745.50
2019-05-09T09:34:18.276Z,98749.56
2019-05-09T09:36:51.211Z,98743.56
2019-05-09T09:39:21.530Z,98735.16
2019-05-09T09:44:28.701Z,98738.57
2019-05-09T09:46:58.081Z,98730.72
2019-05-09T09:49:29.347Z,98740.67
2019-05-09T09:51:58.761Z,98745.03
2019-05-09T09:54:32.168Z,98741.26
2019-05-09T09:57:00.858Z,98740.10
2019-05-09T10:00:38.163Z,98740.19
2019-05-09T10:02:43.286Z,98740.59
2019-05-09T10:05:18.407Z,98734.27
2019-05-09T10:07:47.703Z,98733.17
2019-05-09T10:10:36.339Z,98733.19
2019-05-09T10:13:12.893Z,98731.45
2019-05-09T10:15:48.492Z,98725.67
2019-05-09T10:18:27.636Z,98721.52
2019-05-09T10:21:21.765Z,98721.27
2019-05-09T10:27:08.798Z,98729.37
2019-05-09T10:29:38.752Z,98733.45
2019-05-09T10:32:09.296Z,98726.72
2019-05-09T10:34:37.919Z,98729.45
2019-05-09T10:37:07.750Z,98723.13
2019-05-09T10:39:38.097Z,98726.89
2019-05-09T10:42:25.020Z,98727.77
2019-05-09T10:44:58.331Z,98719.33
2019-05-09T10:47:31.221Z,98721.56
2019-05-09T10:49:59.662Z,98727.80
2019-05-09T10:52:28.624Z,98724.25
2019-05-09T10:54:57.997Z,98727.38
2019-05-09T10:57:31.486Z,98723.18
2019-05-09T10:59:57.991Z,98728.89
2019-05-09T11:02:28.097Z,98722.66
2019-05-09T11:04:57.581Z,98726.50
2019-05-09T11:07:28.739Z,98716.39
2019-05-09T11:09:58.825Z,98719.87
2019-05-09T11:12:27.570Z,98721.03
2019-05-09T11:14:59.136Z,98717.70
2019-05-09T11:17:28.385Z,98722.00
2019-05-09T11:19:58.734Z,98725.34
2019-05-09T11:22:29.292Z,98718.92
2019-05-09T11:24:57.938Z,98711.23
2019-05-09T11:27:29.650Z,98716.19
2019-05-09T11:29:58.114Z,98716.03
2019-05-09T11:32:27.713Z,98713.42
2019-05-09T11:34:57.686Z,98714.27
2019-05-09T11:37:26.409Z,98715.76
2019-05-09T11:39:54.916Z,98719.23
2019-05-09T11:42:23.332Z,98717.89
2019-05-09T11:44:53.286Z,98724.69
2019-05-09T11:47:31.986Z,98729.80
2019-05-09T11:49:51.871Z,98730.73
2019-05-09T11:52:20.275Z,98732.12
2019-05-09T11:54:48.740Z,98737.34
2019-05-09T11:57:19.123Z,98733.95
2019-05-09T11:59:48.052Z,98735.41
2019-05-09T12:02:18.106Z,98733.05
2019-05-09T12:04:48.738Z,98735.73
2019-05-09T12:07:17.837Z,98734.81
2019-05-09T12:09:48.873Z,98733.39
2019-05-09T12:12:19.325Z,98744.69
2019-05-09T12:14:48.388Z,98744.95
2019-05-09T12:17:19.694Z,98738.58
2019-05-09T12:19:48.916Z,98743.27
2019-05-09T12:22:19.133Z,98741.10
2019-05-09T12:24:48.180Z,98741.44
2019-05-09T12:27:18.738Z,98749.31
2019-05-09T12:29:48.326Z,98750.39
2019-05-09T12:32:18.717Z,98746.25
2019-05-09T12:34:48.018Z,98746.47
2019-05-09T12:37:18.409Z,98752.55
2019-05-09T12:39:48.069Z,98758.56
2019-05-09T12:42:18.543Z,98754.19
2019-05-09T12:44:49.509Z,98750.32
2019-05-09T12:47:19.114Z,98753.20
2019-05-09T12:49:48.787Z,98762.89
2019-05-09T12:52:18.532Z,98764.59
2019-05-09T12:54:50.435Z,98761.31
2019-05-09T12:57:19.396Z,98761.65
2019-05-09T12:59:52.199Z,98760.04
2019-05-09T13:02:21.050Z,98758.36
2019-05-09T13:04:49.489Z,98757.99
2019-05-09T13:07:17.977Z,98752.89
2019-05-09T13:09:52.214Z,98764.00
2019-05-09T13:12:18.043Z,98763.80
2019-05-09T13:14:48.601Z,98762.17
2019-05-09T13:17:18.415Z,98758.64
2019-05-09T13:19:50.692Z,98758.11
2019-05-09T13:22:19.119Z,98766.11
2019-05-09T13:24:47.602Z,98765.33
2019-05-09T13:27:18.700Z,98763.16
2019-05-09T13:29:48.972Z,98765.45
2019-05-09T13:32:18.024Z,98766.20
2019-05-09T13:34:48.617Z,98762.77
2019-05-09T13:37:18.840Z,98763.09
2019-05-09T13:39:50.469Z,98755.89
2019-05-09T13:42:21.056Z,98759.09
2019-05-09T13:44:49.561Z,98763.39
2019-05-09T13:47:18.107Z,98763.59
2019-05-09T13:49:48.572Z,98760.95
2019-05-09T13:52:19.789Z,98757.59
2019-05-09T13:54:48.509Z,98765.52
2019-05-09T13:57:18.794Z,98760.81
2019-05-09T13:59:48.694Z,98761.55
2019-05-09T14:02:18.765Z,98756.74
2019-05-09T14:04:48.598Z,98756.63
2019-05-09T14:07:19.249Z,98757.36
2019-05-09T14:09:50.111Z,98762.80
2019-05-09T14:12:17.818Z,98758.22
2019-05-09T14:14:46.579Z,98764.31
2019-05-09T14:17:15.123Z,98769.74
2019-05-09T14:19:46.694Z,98769.00
2019-05-09T14:22:13.799Z,98776.36
2019-05-09T14:24:42.273Z,98772.86
2019-05-09T14:27:12.022Z,98774.50
2019-05-09T14:29:41.768Z,98776.45
2019-05-09T14:32:12.750Z,98773.87
2019-05-09T14:34:42.652Z,98779.65
2019-05-09T14:37:13.985Z,98783.13
2019-05-09T14:39:54.953Z,98785.11
2019-05-09T14:42:12.682Z,98786.39
2019-05-09T14:44:41.138Z,98793.97
2019-05-09T14:47:09.568Z,98791.56
2019-05-09T14:49:43.923Z,98796.09
2019-05-09T14:52:08.987Z,98793.05
2019-05-09T14:54:39.223Z,98799.44
2019-05-09T14:57:09.609Z,98792.98
2019-05-09T14:59:38.421Z,98793.28
2019-05-09T15:02:09.136Z,98806.44
2019-05-09T15:04:38.705Z,98804.91
2019-05-09T15:07:07.618Z,98803.36
2019-05-09T15:09:36.252Z,98812.13
2019-05-09T15:12:04.705Z,98814.41
2019-05-09T15:14:33.213Z,98816.01
2019-05-09T15:17:02.892Z,98812.39
2019-05-09T15:19:31.348Z,98810.33
2019-05-09T15:22:00.899Z,98808.83
2019-05-09T15:24:29.512Z,98817.61
2019-05-09T15:26:58.184Z,98812.86
2019-05-09T15:29:29.083Z,98814.80
2019-05-09T15:32:04.506Z,98812.19
2019-05-09T15:34:28.533Z,98813.39
2019-05-09T15:36:58.222Z,98816.50
2019-05-09T15:39:27.799Z,98818.22
2019-05-09T15:41:57.973Z,98825.72
2019-05-09T15:44:28.020Z,98823.03
2019-05-09T15:47:09.584Z,98826.52
2019-05-09T15:49:38.589Z,98830.81
2019-05-09T15:52:07.481Z,98832.64
2019-05-09T15:54:38.650Z,98834.09
2019-05-09T15:57:17.651Z,98836.14
2019-05-09T15:59:47.889Z,98837.89
2019-05-09T16:02:18.888Z,98836.56
2019-05-09T16:04:47.549Z,98839.61
2019-05-09T16:07:19.347Z,98840.66
2019-05-09T16:09:48.361Z,98839.58
2019-05-09T16:12:18.436Z,98840.95
2019-05-09T16:14:48.631Z,98848.04
2019-05-09T16:17:19.138Z,98845.31
2019-05-09T16:19:49.483Z,98843.70
2019-05-09T16:22:18.951Z,98843.73
2019-05-09T16:24:48.576Z,98841.38
2019-05-09T16:27:17.333Z,98843.45
2019-05-09T16:29:48.436Z,98848.25
2019-05-09T16:32:18.360Z,98842.20
2019-05-09T16:34:46.065Z,98849.70
2019-05-09T16:37:14.821Z,98851.09
2019-05-09T16:39:43.439Z,98847.44
2019-05-09T16:42:11.920Z,98847.62
2019-05-09T16:44:45.257Z,98853.55
2019-05-09T16:47:13.838Z,98854.02
2019-05-09T16:49:47.755Z,98850.20
2019-05-09T16:52:17.942Z,98846.66
2019-05-09T16:54:50.019Z,98848.06
2019-05-09T16:57:18.293Z,98850.37
2019-05-09T16:59:47.878Z,98856.60
2019-05-09T17:02:24.468Z,98851.39
2019-05-09T17:04:48.450Z,98863.88
2019-05-09T17:07:18.048Z,98869.27
2019-05-09T17:09:48.512Z,98868.89
2019-05-09T17:12:18.607Z,98869.00
2019-05-09T17:14:47.196Z,98870.11
2019-05-09T17:17:17.772Z,98867.20
2019-05-09T17:19:47.933Z,98872.65
2019-05-09T17:22:20.581Z,98873.36
2019-05-09T17:24:49.687Z,98878.39
2019-05-09T17:27:18.792Z,98881.28
2019-05-09T17:29:47.961Z,98881.03
2019-05-09T17:32:18.302Z,98883.13
2019-05-09T17:34:47.586Z,98886.27
2019-05-09T17:37:17.723Z,98886.12
2019-05-09T17:39:46.476Z,98890.81
2019-05-09T17:42:18.249Z,98887.47
2019-05-09T17:44:48.825Z,98886.73
2019-05-09T17:47:17.561Z,98894.25
2019-05-09T17:49:48.354Z,98892.83
2019-05-09T17:52:18.291Z,98901.47
2019-05-09T17:54:48.509Z,98902.26
2019-05-09T17:57:18.785Z,98905.67
2019-05-09T17:59:48.787Z,98899.22
2019-05-09T18:02:18.948Z,98900.98
2019-05-09T18:04:48.149Z,98891.33
2019-05-09T18:07:18.279Z,98891.33
2019-05-09T18:09:48.307Z,98912.30
2019-05-09T18:12:19.109Z,98911.83
2019-05-09T18:14:47.699Z,98913.30
2019-05-09T18:17:17.951Z,98913.45
2019-05-09T18:19:46.216Z,98913.32
2019-05-09T18:22:14.634Z,98919.09
2019-05-09T18:24:43.048Z,98923.77
2019-05-09T18:27:11.477Z,98925.47
2019-05-09T18:29:39.894Z,98929.42
2019-05-09T18:32:28.252Z,98932.17
2019-05-09T18:35:13.757Z,98941.30
2019-05-09T18:37:42.187Z,98934.20
2019-05-09T18:40:11.539Z,98944.73
2019-05-09T18:42:39.935Z,98939.77
2019-05-09T18:45:08.896Z,98939.48
2019-05-09T18:47:41.473Z,98940.92
2019-05-09T18:50:10.744Z,98941.49
2019-05-09T18:52:39.299Z,98952.14
2019-05-09T18:55:09.254Z,98953.91
2019-05-09T18:57:37.737Z,98957.09
2019-05-09T19:00:12.493Z,98964.34
2019-05-09T19:02:41.638Z,98966.00
2019-05-09T19:05:13.041Z,98966.88
2019-05-09T19:07:40.092Z,98969.68
2019-05-09T19:10:08.807Z,98973.19
2019-05-09T19:12:37.205Z,98973.34
2019-05-09T19:15:09.427Z,98970.75
2019-05-09T19:17:39.483Z,98977.23
2019-05-09T19:20:26.720Z,98986.94
2019-05-09T19:22:55.148Z,98981.94
2019-05-09T19:25:24.665Z,98990.46
2019-05-09T19:27:59.147Z,98994.29
2019-05-09T19:30:27.563Z,98984.09
2019-05-09T19:32:55.987Z,98993.05
2019-05-09T19:35:24.415Z,98996.42
2019-05-09T19:37:52.830Z,99001.45
2019-05-09T19:40:21.272Z,99002.41
2019-05-09T19:42:49.553Z,98999.22
2019-05-09T19:45:18.205Z,99007.23
2019-05-09T19:47:46.616Z,99000.67
2019-05-09T19:50:15.287Z,99016.88
2019-05-09T19:52:43.728Z,99014.20
2019-05-09T19:55:12.268Z,99015.55
2019-05-09T19:57:40.685Z,99017.52
2019-05-09T20:00:09.638Z,99019.27
2019-05-09T20:02:38.079Z,99022.84
2019-05-09T20:05:09.294Z,99030.73
2019-05-09T20:07:37.708Z,99027.34
2019-05-09T20:10:09.816Z,99026.93
2019-05-09T20:12:55.990Z,99032.27
2019-05-09T20:15:25.349Z,99040.69
2019-05-09T20:17:53.828Z,99036.78
2019-05-09T20:20:22.300Z,99050.61
2019-05-09T20:22:53.095Z,99053.02
2019-05-09T20:25:20.894Z,99057.13
2019-05-09T20:27:49.331Z,99058.17
2019-05-09T20:30:17.942Z,99060.71
2019-05-09T20:32:46.378Z,99056.62
2019-05-09T20:35:14.900Z,99057.13
2019-05-09T20:37:43.488Z,99062.74
2019-05-09T20:40:12.519Z,99067.56
2019-05-09T20:42:41.155Z,99063.98
2019-05-09T20:45:09.810Z,99065.41
2019-05-09T20:47:38.439Z,99067.84
2019-05-09T20:50:07.676Z,99072.35
2019-05-09T20:52:36.318Z,99079.52
2019-05-09T20:55:06.234Z,99076.12
2019-05-09T20:57:34.832Z,99076.75
2019-05-09T21:00:04.606Z,99079.61
2019-05-09T21:02:33.223Z,99075.89
2019-05-09T21:05:01.838Z,99079.89
2019-05-09T21:07:32.128Z,99077.22
2019-05-09T21:10:00.727Z,99078.22
2019-05-09T21:12:29.333Z,99073.08
2019-05-09T21:14:57.930Z,99073.50
2019-05-09T21:17:26.538Z,99085.06
2019-05-09T21:19:55.183Z,99087.44
2019-05-09T21:22:23.842Z,99087.66
2019-05-09T21:24:52.443Z,99087.49
2019-05-09T21:27:21.056Z,99090.05
2019-05-09T21:29:49.646Z,99088.77
2019-05-09T21:32:18.260Z,99090.93
2019-05-09T21:34:46.688Z,99091.89
2019-05-09T21:37:15.085Z,99098.65
2019-05-09T21:39:43.504Z,99104.05
2019-05-09T21:42:11.914Z,99103.41
2019-05-09T21:44:40.339Z,99113.81
2019-05-09T21:47:08.749Z,99116.48
2019-05-09T21:49:37.172Z,99117.48
2019-05-09T21:52:05.645Z,99122.97
2019-05-09T21:54:34.072Z,99123.38
2019-05-09T21:57:02.529Z,99120.12
2019-05-09T21:59:30.969Z,99125.34
2019-05-09T22:01:59.453Z,99134.67
2019-05-09T22:04:27.906Z,99129.80
2019-05-09T22:06:56.325Z,99137.36
2019-05-09T22:09:24.743Z,99137.09
2019-05-09T22:11:53.177Z,99133.95
2019-05-09T22:14:21.616Z,99149.08
2019-05-09T22:16:50.046Z,99144.70
2019-05-09T22:19:18.623Z,99143.67
2019-05-09T22:21:47.055Z,99145.32
2019-05-09T22:24:15.469Z,99145.93
2019-05-09T22:26:43.891Z,99150.91
2019-05-09T22:29:12.312Z,99147.16
2019-05-09T22:31:40.726Z,99149.08
2019-05-09T22:34:09.216Z,99157.38
2019-05-09T22:36:37.632Z,99161.30
2019-05-09T22:39:07.987Z,99156.91
2019-05-09T22:41:36.387Z,99163.88
2019-05-09T22:44:04.890Z,99163.30
2019-05-09T22:46:33.302Z,99162.97
2019-05-09T22:49:01.783Z,99169.37
2019-05-09T22:51:30.189Z,99170.56
2019-05-09T22:54:11.540Z,99183.30
2019-05-09T22:56:28.746Z,99184.02
2019-05-09T22:58:57.185Z,99194.46
2019-05-09T23:01:25.604Z,99194.70
2019-05-09T23:03:54.038Z,99185.37
2019-05-09T23:06:22.465Z,99184.14
2019-05-09T23:08:50.907Z,99186.28
2019-05-09T23:11:19.314Z,99189.03
2019-05-09T23:13:53.216Z,99191.05
2019-05-09T23:16:22.934Z,99199.20
2019-05-09T23:18:51.430Z,99203.84
2019-05-09T23:21:19.856Z,99204.67
2019-05-09T23:23:55.616Z,99204.45
2019-05-09T23:26:24.384Z,99202.94
2019-05-09T23:28:52.899Z,99202.62
2019-05-09T23:31:22.955Z,99207.52
2019-05-09T23:33:51.409Z,99202.22
2019-05-09T23:36:19.830Z,99200.97
2019-05-09T23:39:06.039Z,99203.34
2019-05-09T23:41:34.466Z,99213.70
2019-05-09T23:44:02.892Z,99208.21
2019-05-09T23:46:31.344Z,99215.83
2019-05-09T23:48:59.783Z,99216.20
2019-05-09T23:51:45.011Z,99214.44
2019-05-09T23:54:45.266Z,99212.94
2019-05-09T23:57:23.153Z,99221.52
